createdAt,value
2017-06-17T00:00:18.764Z,13.17
2017-06-17T00:01:18.762Z,13.2
2017-06-17T00:02:19.054Z,13.14
2017-06-17T00:03:19.049Z,13.12
2017-06-17T00:04:19.044Z,13.17
2017-06-17T00:08:19.019Z,13.14
2017-06-17T00:09:18.712Z,13.14
2017-06-17T00:10:19.007Z,13.12
2017-06-17T00:11:19.003Z,13.08
2017-06-17T00:12:18.692Z,13.11
2017-06-17T00:13:18.994Z,13.1
2017-06-17T00:14:18.985Z,13.15
2017-06-17T00:15:18.677Z,13.12
2017-06-17T00:16:18.367Z,13.12
2017-06-17T00:17:18.666Z,13.1
2017-06-17T00:18:18.660Z,13.12
2017-06-17T00:19:18.651Z,13.15
2017-06-17T00:20:18.645Z,13.11
2017-06-17T00:21:18.638Z,13.08
2017-06-17T00:22:18.939Z,13.1
2017-06-17T00:23:18.628Z,13.17
2017-06-17T00:24:18.620Z,13.19
2017-06-17T00:25:18.312Z,13.04
2017-06-17T00:26:18.611Z,13.08
2017-06-17T00:27:18.603Z,13.07
2017-06-17T00:28:18.597Z,13.08
2017-06-17T00:29:18.896Z,13.11
2017-06-17T00:30:18.585Z,13.12
2017-06-17T00:31:18.881Z,13.04
2017-06-17T00:32:18.573Z,13.04
2017-06-17T00:33:18.872Z,13.01
2017-06-17T00:34:18.863Z,13.03
2017-06-17T00:35:18.857Z,12.97
2017-06-17T00:36:18.852Z,13
2017-06-17T00:37:18.871Z,13.03
2017-06-17T00:38:18.844Z,12.92
2017-06-17T00:39:18.834Z,12.93
2017-06-17T00:40:18.524Z,13.04
2017-06-17T00:41:18.518Z,13.07
2017-06-17T00:42:18.513Z,13.01
2017-06-17T00:43:18.808Z,13.01
2017-06-17T00:44:18.802Z,12.97
2017-06-17T00:45:18.799Z,13
2017-06-17T00:46:18.486Z,13.03
2017-06-17T00:47:18.483Z,13.03
2017-06-17T00:48:18.476Z,13.03
2017-06-17T00:49:18.469Z,13
2017-06-17T00:50:18.464Z,13.01
2017-06-17T00:51:18.760Z,13.03
2017-06-17T00:52:18.451Z,12.97
2017-06-17T00:53:18.748Z,13.04
2017-06-17T00:54:18.740Z,12.97
2017-06-17T00:55:18.741Z,13
2017-06-17T00:56:18.732Z,12.95
2017-06-17T00:57:18.723Z,12.97
2017-06-17T00:58:18.716Z,12.95
2017-06-17T00:59:18.713Z,12.87
2017-06-17T01:00:18.705Z,12.85
2017-06-17T01:01:18.698Z,12.85
2017-06-17T01:02:18.389Z,12.85
2017-06-17T01:03:18.686Z,12.93
2017-06-17T01:04:18.681Z,12.97
2017-06-17T01:05:18.674Z,12.9
2017-06-17T01:06:18.668Z,12.9
2017-06-17T01:07:18.664Z,12.86
2017-06-17T01:08:18.654Z,12.89
2017-06-17T01:09:18.650Z,12.95
2017-06-17T01:10:18.647Z,12.89
2017-06-17T01:11:18.639Z,12.86
2017-06-17T01:12:18.631Z,12.87
2017-06-17T01:13:18.624Z,12.82
2017-06-17T01:14:18.618Z,13.01
2017-06-17T01:15:18.618Z,12.97
2017-06-17T01:16:18.606Z,12.85
2017-06-17T01:17:18.600Z,12.86
2017-06-17T01:18:18.595Z,12.87
2017-06-17T01:19:18.287Z,12.89
2017-06-17T01:20:18.583Z,12.86
2017-06-17T01:21:18.576Z,12.87
2017-06-17T01:22:18.571Z,12.87
2017-06-17T01:23:18.565Z,12.82
2017-06-17T01:24:18.557Z,12.86
2017-06-17T01:25:18.552Z,12.86
2017-06-17T01:26:18.245Z,12.77
2017-06-17T01:27:18.537Z,12.78
2017-06-17T01:28:18.533Z,12.92
2017-06-17T01:29:18.525Z,12.79
2017-06-17T01:30:18.519Z,12.77
2017-06-17T01:31:18.514Z,12.75
2017-06-17T01:32:18.507Z,12.75
2017-06-17T01:33:18.197Z,12.74
2017-06-17T01:34:18.495Z,12.72
2017-06-17T01:35:18.488Z,12.71
2017-06-17T01:36:18.483Z,12.79
2017-06-17T01:37:18.475Z,12.74
2017-06-17T01:38:18.470Z,12.71
2017-06-17T01:39:18.463Z,12.71
2017-06-17T01:40:18.457Z,12.77
2017-06-17T01:41:18.451Z,12.72
2017-06-17T01:42:18.447Z,12.74
2017-06-17T01:43:18.440Z,12.74
2017-06-17T01:44:18.429Z,12.79
2017-06-17T01:45:18.425Z,12.78
2017-06-17T01:46:18.419Z,12.75
2017-06-17T01:47:18.414Z,12.79
2017-06-17T01:48:18.405Z,12.83
2017-06-17T01:49:18.399Z,12.83
2017-06-17T01:50:18.090Z,12.87
2017-06-17T01:51:18.388Z,12.83
2017-06-17T01:52:18.386Z,12.95
2017-06-17T01:53:18.377Z,12.96
2017-06-17T01:54:18.371Z,12.92
2017-06-17T01:55:18.363Z,13.04
2017-06-17T01:56:18.359Z,13.03
2017-06-17T01:57:18.352Z,13.15
2017-06-17T01:58:18.345Z,13.17
2017-06-17T01:59:18.339Z,13.1
2017-06-17T02:00:18.335Z,13.19
2017-06-17T02:01:18.325Z,13.15
2017-06-17T02:02:18.320Z,13.12
2017-06-17T02:03:18.314Z,13.07
2017-06-17T02:04:18.307Z,13.22
2017-06-17T02:05:18.305Z,13.2
2017-06-17T02:06:18.299Z,13.19
2017-06-17T02:07:18.292Z,13.15
2017-06-17T02:08:18.292Z,13.29
2017-06-17T02:09:18.297Z,13.26
2017-06-17T02:10:17.970Z,13.3
2017-06-17T02:11:17.963Z,13.33
2017-06-17T02:12:18.261Z,13.39
2017-06-17T02:13:18.253Z,13.51
2017-06-17T02:14:18.246Z,13.52
2017-06-17T02:15:17.938Z,13.57
2017-06-17T02:16:17.932Z,13.62
2017-06-17T02:17:18.231Z,13.67
2017-06-17T02:18:18.222Z,13.78
2017-06-17T02:19:18.217Z,13.79
2017-06-17T02:20:18.212Z,13.88
2017-06-17T02:21:17.902Z,13.88
2017-06-17T02:22:18.202Z,13.84
2017-06-17T02:23:18.193Z,14.02
2017-06-17T02:24:18.188Z,14.02
2017-06-17T02:25:17.877Z,14.06
2017-06-17T02:26:18.176Z,14.06
2017-06-17T02:27:18.170Z,14.07
2017-06-17T02:28:18.166Z,14.1
2017-06-17T02:29:18.158Z,14.2
2017-06-17T02:30:18.156Z,14.17
2017-06-17T02:31:18.148Z,14.25
2017-06-17T02:32:18.143Z,14.29
2017-06-17T02:33:18.135Z,14.28
2017-06-17T02:34:18.437Z,14.25
2017-06-17T02:35:18.126Z,14.24
2017-06-17T02:36:18.119Z,14.25
2017-06-17T02:37:18.114Z,14.36
2017-06-17T02:38:18.109Z,14.35
2017-06-17T02:39:18.104Z,14.37
2017-06-17T02:40:18.099Z,14.47
2017-06-17T02:41:18.092Z,14.5
2017-06-17T02:42:18.088Z,14.51
2017-06-17T02:43:18.082Z,14.5
2017-06-17T02:44:18.078Z,14.47
2017-06-17T02:45:18.071Z,14.42
2017-06-17T02:46:17.761Z,14.57
2017-06-17T02:47:18.060Z,14.54
2017-06-17T02:48:18.059Z,14.58
2017-06-17T02:49:18.052Z,14.57
2017-06-17T02:50:18.046Z,14.51
2017-06-17T02:51:18.038Z,14.51
2017-06-17T02:52:18.033Z,14.57
2017-06-17T02:53:18.028Z,14.6
2017-06-17T02:54:18.020Z,14.65
2017-06-17T02:55:18.017Z,14.58
2017-06-17T02:56:18.012Z,14.6
2017-06-17T02:57:18.005Z,14.68
2017-06-17T02:58:17.699Z,14.62
2017-06-17T02:59:17.999Z,14.62
2017-06-17T03:00:17.991Z,14.69
2017-06-17T03:01:17.985Z,14.68
2017-06-17T03:02:17.979Z,14.72
2017-06-17T03:03:17.675Z,14.64
2017-06-17T03:04:17.970Z,14.77
2017-06-17T03:05:17.967Z,14.72
2017-06-17T03:06:17.958Z,14.65
2017-06-17T03:07:17.955Z,14.7
2017-06-17T03:08:17.948Z,14.75
2017-06-17T03:09:17.945Z,14.75
2017-06-17T03:10:17.936Z,14.73
2017-06-17T03:11:17.933Z,14.7
2017-06-17T03:12:17.929Z,14.84
2017-06-17T03:13:17.922Z,14.75
2017-06-17T03:14:17.916Z,14.8
2017-06-17T03:15:17.916Z,14.81
2017-06-17T03:16:17.909Z,14.83
2017-06-17T03:17:17.906Z,14.8
2017-06-17T03:18:17.897Z,14.83
2017-06-17T03:19:17.889Z,14.81
2017-06-17T03:20:17.891Z,14.81
2017-06-17T03:21:17.880Z,14.81
2017-06-17T03:22:17.883Z,14.8
2017-06-17T03:23:17.871Z,14.84
2017-06-17T03:24:17.865Z,14.75
2017-06-17T03:25:17.860Z,14.78
2017-06-17T03:26:17.856Z,14.77
2017-06-17T03:27:17.852Z,14.77
2017-06-17T03:28:17.845Z,14.73
2017-06-17T03:29:17.840Z,14.78
2017-06-17T03:30:17.838Z,14.8
2017-06-17T03:31:17.834Z,14.84
2017-06-17T03:32:17.826Z,14.75
2017-06-17T03:33:17.829Z,14.83
2017-06-17T03:34:17.818Z,14.75
2017-06-17T03:35:17.820Z,14.88
2017-06-17T03:36:17.501Z,14.83
2017-06-17T03:37:17.798Z,14.91
2017-06-17T03:38:17.795Z,14.86
2017-06-17T03:39:17.788Z,14.84
2017-06-17T03:40:17.785Z,14.89
2017-06-17T03:41:17.778Z,14.91
2017-06-17T03:42:17.774Z,14.88
2017-06-17T03:43:17.773Z,14.91
2017-06-17T03:44:17.765Z,14.94
2017-06-17T03:45:17.456Z,14.91
2017-06-17T03:46:17.449Z,14.94
2017-06-17T03:47:17.751Z,14.92
2017-06-17T03:48:17.742Z,14.94
2017-06-17T03:49:17.742Z,15.01
2017-06-17T03:50:17.736Z,14.91
2017-06-17T03:51:17.728Z,14.91
2017-06-17T03:52:17.722Z,15.03
2017-06-17T03:53:17.719Z,14.96
2017-06-17T03:54:17.713Z,14.96
2017-06-17T03:55:17.740Z,15.02
2017-06-17T03:56:17.704Z,15.03
2017-06-17T03:57:17.701Z,15.07
2017-06-17T03:58:17.697Z,15.09
2017-06-17T03:59:17.689Z,15.06
2017-06-17T04:00:17.685Z,15.06
2017-06-17T04:01:17.678Z,15.1
2017-06-17T04:02:17.674Z,15.16
2017-06-17T04:03:17.668Z,15.09
2017-06-17T04:04:17.665Z,15.2
2017-06-17T04:05:17.660Z,15.21
2017-06-17T04:06:17.656Z,15.17
2017-06-17T04:07:17.650Z,15.19
2017-06-17T04:08:17.642Z,15.21
2017-06-17T04:09:17.639Z,15.29
2017-06-17T04:10:17.635Z,15.31
2017-06-17T04:11:17.634Z,15.34
2017-06-17T04:12:17.629Z,15.34
2017-06-17T04:13:17.620Z,15.34
2017-06-17T04:14:17.615Z,15.34
2017-06-17T04:15:17.610Z,15.34
2017-06-17T04:16:17.606Z,15.38
2017-06-17T04:17:17.602Z,15.49
2017-06-17T04:18:17.597Z,15.39
2017-06-17T04:19:17.592Z,15.36
2017-06-17T04:20:17.587Z,15.44
2017-06-17T04:21:17.278Z,15.49
2017-06-17T04:22:17.578Z,15.54
2017-06-17T04:23:17.580Z,15.56
2017-06-17T04:24:16.962Z,15.51
2017-06-17T04:25:17.564Z,15.56
2017-06-17T04:26:17.560Z,15.6
2017-06-17T04:27:17.556Z,15.56
2017-06-17T04:28:17.550Z,15.64
2017-06-17T04:29:17.545Z,15.59
2017-06-17T04:30:17.544Z,15.6
2017-06-17T04:31:17.537Z,15.62
2017-06-17T04:32:17.534Z,15.6
2017-06-17T04:33:17.226Z,15.75
2017-06-17T04:34:17.524Z,15.67
2017-06-17T04:35:16.912Z,15.71
2017-06-17T04:36:17.559Z,15.76
2017-06-17T04:37:17.509Z,15.83
2017-06-17T04:38:17.506Z,15.76
2017-06-17T04:39:17.501Z,15.75
2017-06-17T04:40:17.497Z,15.74
2017-06-17T04:41:17.497Z,15.8
2017-06-17T04:42:17.487Z,15.89
2017-06-17T04:43:17.182Z,15.78
2017-06-17T04:44:17.479Z,15.92
2017-06-17T04:45:17.476Z,15.96
2017-06-17T04:46:17.472Z,15.87
2017-06-17T04:47:17.467Z,15.93
2017-06-17T04:48:17.460Z,16.02
2017-06-17T04:49:17.459Z,15.96
2017-06-17T04:50:17.453Z,15.97
2017-06-17T04:51:17.450Z,16.09
2017-06-17T04:52:17.143Z,16.09
2017-06-17T04:53:17.138Z,16.17
2017-06-17T04:54:17.134Z,16.11
2017-06-17T04:55:17.129Z,16.09
2017-06-17T04:56:17.127Z,16.11
2017-06-17T04:57:17.121Z,16.08
2017-06-17T04:58:17.118Z,16.15
2017-06-17T04:59:17.415Z,16.09
2017-06-17T05:00:17.109Z,16.09
2017-06-17T05:01:17.108Z,16.17
2017-06-17T05:02:17.406Z,16.25
2017-06-17T05:03:17.403Z,16.3
2017-06-17T05:04:17.395Z,16.23
2017-06-17T05:05:17.089Z,16.25
2017-06-17T05:06:17.387Z,16.24
2017-06-17T05:07:17.386Z,16.33
2017-06-17T05:08:17.382Z,16.35
2017-06-17T05:09:17.071Z,16.46
2017-06-17T05:10:17.068Z,16.42
2017-06-17T05:11:17.369Z,16.43
2017-06-17T05:12:17.364Z,16.49
2017-06-17T05:13:17.057Z,16.53
2017-06-17T05:14:17.063Z,16.49
2017-06-17T05:15:17.049Z,16.52
2017-06-17T05:16:17.045Z,16.5
2017-06-17T05:17:17.346Z,16.5
2017-06-17T05:18:17.038Z,16.48
2017-06-17T05:19:17.033Z,16.57
2017-06-17T05:20:17.035Z,16.63
2017-06-17T05:21:17.028Z,16.71
2017-06-17T05:22:17.326Z,16.75
2017-06-17T05:23:17.019Z,16.75
2017-06-17T05:24:17.013Z,16.75
2017-06-17T05:25:17.011Z,16.91
2017-06-17T05:26:17.312Z,16.94
2017-06-17T05:27:17.306Z,17.07
2017-06-17T05:28:17.000Z,17.15
2017-06-17T05:29:17.299Z,17.12
2017-06-17T05:30:17.026Z,17.31
2017-06-17T05:31:17.295Z,17.31
2017-06-17T05:32:17.290Z,17.43
2017-06-17T05:33:17.285Z,17.41
2017-06-17T05:34:17.281Z,17.51
2017-06-17T05:35:17.280Z,17.7
2017-06-17T05:36:17.276Z,17.66
2017-06-17T05:37:17.273Z,17.75
2017-06-17T05:38:17.270Z,17.9
2017-06-17T05:39:17.267Z,17.95
2017-06-17T05:40:17.263Z,18.11
2017-06-17T05:41:17.263Z,18.11
2017-06-17T05:42:16.955Z,18.2
2017-06-17T05:43:16.954Z,18.29
2017-06-17T05:44:17.255Z,18.29
2017-06-17T05:45:17.251Z,18.45
2017-06-17T05:46:17.248Z,18.5
2017-06-17T05:47:17.247Z,18.63
2017-06-17T05:48:17.273Z,18.69
2017-06-17T05:49:17.240Z,18.84
2017-06-17T05:50:17.239Z,18.94
2017-06-17T05:51:17.236Z,18.98
2017-06-17T05:52:17.236Z,19
2017-06-17T05:53:17.234Z,19.16
2017-06-17T05:54:17.231Z,19.21
2017-06-17T05:55:17.230Z,19.39
2017-06-17T05:56:17.227Z,19.32
2017-06-17T05:57:17.228Z,19.32
2017-06-17T05:58:16.921Z,19.32
2017-06-17T05:59:16.921Z,19.33
2017-06-17T06:00:17.224Z,19.32
2017-06-17T06:01:17.222Z,19.43
2017-06-17T06:02:17.219Z,19.48
2017-06-17T06:03:17.219Z,19.56
2017-06-17T06:04:17.217Z,19.62
2017-06-17T06:05:17.217Z,19.61
2017-06-17T06:06:17.215Z,19.66
2017-06-17T06:07:16.912Z,19.8
2017-06-17T06:08:17.215Z,19.87
2017-06-17T06:09:16.907Z,19.92
2017-06-17T06:10:17.214Z,19.96
2017-06-17T06:11:17.211Z,19.94
2017-06-17T06:12:17.209Z,19.94
2017-06-17T06:13:17.208Z,20.05
2017-06-17T06:14:17.205Z,20.05
2017-06-17T06:15:17.205Z,20.02
2017-06-17T06:16:17.204Z,20.06
2017-06-17T06:17:17.202Z,20.2
2017-06-17T06:18:17.203Z,20.18
2017-06-17T06:19:17.200Z,20.31
2017-06-17T06:20:17.208Z,20.33
2017-06-17T06:21:17.199Z,20.33
2017-06-17T06:22:17.200Z,20.26
2017-06-17T06:23:17.198Z,20.24
2017-06-17T06:24:17.196Z,20.31
2017-06-17T06:25:17.197Z,20.5
2017-06-17T06:26:17.194Z,20.73
2017-06-17T06:27:17.195Z,20.95
2017-06-17T06:28:17.195Z,21.1
2017-06-17T06:29:17.194Z,21.22
2017-06-17T06:30:17.196Z,21.35
2017-06-17T06:31:17.197Z,21.38
2017-06-17T06:32:17.199Z,21.47
2017-06-17T06:33:17.196Z,21.49
2017-06-17T06:34:16.892Z,21.44
2017-06-17T06:35:17.196Z,21.37
2017-06-17T06:36:17.198Z,21.52
2017-06-17T06:37:17.200Z,21.52
2017-06-17T06:38:17.198Z,21.5
2017-06-17T06:39:17.201Z,21.5
2017-06-17T06:40:17.200Z,21.49
2017-06-17T06:41:17.201Z,21.38
2017-06-17T06:42:17.201Z,21.31
2017-06-17T06:43:17.201Z,21.28
2017-06-17T06:44:17.200Z,21.14
2017-06-17T06:45:17.205Z,21.1
2017-06-17T06:46:17.202Z,20.97
2017-06-17T06:47:17.202Z,20.85
2017-06-17T06:48:17.201Z,20.82
2017-06-17T06:49:17.201Z,20.62
2017-06-17T06:50:16.906Z,20.39
2017-06-17T06:51:16.899Z,20.26
2017-06-17T06:52:17.229Z,20.06
2017-06-17T06:53:17.199Z,20.05
2017-06-17T06:54:17.201Z,19.96
2017-06-17T06:55:17.199Z,19.88
2017-06-17T06:56:17.198Z,19.78
2017-06-17T06:57:16.895Z,19.8
2017-06-17T06:58:17.197Z,19.73
2017-06-17T06:59:17.203Z,19.73
2017-06-17T07:02:17.191Z,19.56
2017-06-17T07:03:17.187Z,19.58
2017-06-17T07:04:17.188Z,19.51
2017-06-17T07:05:17.185Z,19.5
2017-06-17T07:06:17.184Z,19.58
2017-06-17T07:07:17.181Z,19.55
2017-06-17T07:08:16.877Z,19.54
2017-06-17T07:09:17.179Z,19.63
2017-06-17T07:10:16.873Z,19.62
2017-06-17T07:11:17.178Z,19.63
2017-06-17T07:12:17.176Z,19.74
2017-06-17T07:13:17.175Z,19.68
2017-06-17T07:14:17.173Z,19.66
2017-06-17T07:15:17.170Z,19.69
2017-06-17T07:16:17.170Z,19.77
2017-06-17T07:17:16.863Z,19.73
2017-06-17T07:18:17.169Z,19.78
2017-06-17T07:19:17.164Z,19.81
2017-06-17T07:20:16.858Z,19.71
2017-06-17T07:21:17.159Z,19.86
2017-06-17T07:22:17.158Z,19.69
2017-06-17T07:23:17.158Z,19.73
2017-06-17T07:24:17.155Z,19.68
2017-06-17T07:25:16.853Z,19.56
2017-06-17T07:26:16.850Z,19.48
2017-06-17T07:27:17.155Z,19.37
2017-06-17T07:28:17.147Z,19.4
2017-06-17T07:29:16.846Z,19.31
2017-06-17T07:30:17.146Z,19.31
2017-06-17T07:31:17.145Z,19.25
2017-06-17T07:32:17.141Z,19.4
2017-06-17T07:33:17.139Z,19.37
2017-06-17T07:35:17.136Z,19.68
2017-06-17T07:36:17.134Z,19.74
2017-06-17T07:37:17.134Z,19.65
2017-06-17T07:38:17.133Z,19.69
2017-06-17T07:39:17.130Z,19.68
2017-06-17T07:40:17.127Z,19.84
2017-06-17T07:41:16.831Z,19.92
2017-06-17T07:42:17.123Z,19.86
2017-06-17T07:43:16.818Z,19.95
2017-06-17T07:44:17.121Z,19.98
2017-06-17T07:45:16.817Z,19.95
2017-06-17T07:46:16.817Z,19.84
2017-06-17T07:47:17.117Z,19.84
2017-06-17T07:48:16.814Z,19.92
2017-06-17T07:49:17.116Z,19.88
2017-06-17T07:50:16.812Z,20.06
2017-06-17T07:51:16.812Z,20.16
2017-06-17T07:52:17.132Z,20.21
2017-06-17T07:53:16.806Z,20.26
2017-06-17T07:54:17.108Z,20.21
2017-06-17T07:55:16.807Z,20.21
2017-06-17T07:56:17.112Z,20.31
2017-06-17T07:57:16.802Z,20.21
2017-06-17T07:58:16.803Z,20.26
2017-06-17T07:59:17.105Z,20.24
2017-06-17T08:00:17.105Z,20.24
2017-06-17T08:01:17.103Z,20.26
2017-06-17T08:02:17.103Z,20.29
2017-06-17T08:03:16.798Z,20.32
2017-06-17T08:04:16.799Z,20.32
2017-06-17T08:05:17.099Z,20.36
2017-06-17T08:06:17.099Z,20.51
2017-06-17T08:07:17.098Z,20.55
2017-06-17T08:08:17.103Z,20.57
2017-06-17T08:09:17.095Z,20.61
2017-06-17T08:10:16.793Z,20.66
2017-06-17T08:11:17.096Z,20.64
2017-06-17T08:12:17.095Z,20.64
2017-06-17T08:13:17.097Z,20.69
2017-06-17T08:14:16.791Z,20.95
2017-06-17T08:15:16.791Z,21.12
2017-06-17T08:16:16.794Z,21.34
2017-06-17T08:17:17.095Z,21.47
2017-06-17T08:18:16.794Z,21.68
2017-06-17T08:19:16.796Z,21.92
2017-06-17T08:20:16.795Z,22.2
2017-06-17T08:21:17.103Z,22.35
2017-06-17T08:22:17.101Z,22.52
2017-06-17T08:23:17.106Z,22.52
2017-06-17T08:24:16.802Z,22.62
2017-06-17T08:25:17.110Z,22.76
2017-06-17T08:26:17.111Z,22.86
2017-06-17T08:27:17.118Z,22.9
2017-06-17T08:28:17.118Z,22.94
2017-06-17T08:29:17.122Z,22.95
2017-06-17T08:30:17.425Z,22.92
2017-06-17T08:31:18.946Z,22.9
2017-06-17T08:32:17.129Z,22.88
2017-06-17T08:33:17.131Z,22.85
2017-06-17T08:34:16.831Z,22.85
2017-06-17T08:35:17.136Z,22.82
2017-06-17T08:36:17.138Z,22.98
2017-06-17T08:37:16.848Z,22.97
2017-06-17T08:38:17.146Z,22.86
2017-06-17T08:39:17.150Z,22.91
2017-06-17T08:40:16.845Z,22.8
2017-06-17T08:41:17.154Z,22.73
2017-06-17T08:42:17.154Z,22.49
2017-06-17T08:43:16.851Z,22.46
2017-06-17T08:44:17.155Z,22.33
2017-06-17T08:45:17.164Z,22.42
2017-06-17T08:46:17.161Z,22.51
2017-06-17T08:47:17.168Z,22.58
2017-06-17T08:48:17.166Z,22.79
2017-06-17T08:49:17.169Z,22.9
2017-06-17T08:50:16.873Z,22.91
2017-06-17T08:51:17.178Z,23.04
2017-06-17T08:52:17.184Z,23.2
2017-06-17T08:53:17.188Z,23.31
2017-06-17T08:54:17.192Z,23.4
2017-06-17T08:55:16.894Z,23.38
2017-06-17T08:56:17.198Z,23.55
2017-06-17T08:57:17.204Z,23.61
2017-06-17T08:58:17.205Z,23.5
2017-06-17T08:59:16.906Z,23.48
2017-06-17T09:00:17.214Z,23.5
2017-06-17T09:01:17.218Z,23.58
2017-06-17T09:02:17.224Z,23.53
2017-06-17T09:03:17.223Z,23.61
2017-06-17T09:04:17.230Z,23.7
2017-06-17T09:05:17.233Z,23.55
2017-06-17T09:06:17.235Z,23.38
2017-06-17T09:07:17.249Z,23.22
2017-06-17T09:08:17.243Z,23.22
2017-06-17T09:09:17.246Z,23.23
2017-06-17T09:10:16.945Z,23.27
2017-06-17T09:11:17.251Z,23.17
2017-06-17T09:12:17.255Z,23.17
2017-06-17T09:13:17.255Z,23.16
2017-06-17T09:14:16.956Z,23.17
2017-06-17T09:15:17.264Z,23.1
2017-06-17T09:16:17.264Z,23.04
2017-06-17T09:17:16.963Z,22.97
2017-06-17T09:18:17.266Z,22.94
2017-06-17T09:19:16.968Z,22.86
2017-06-17T09:20:17.275Z,22.76
2017-06-17T09:21:17.277Z,22.77
2017-06-17T09:22:17.275Z,22.73
2017-06-17T09:23:17.278Z,22.7
2017-06-17T09:24:16.977Z,22.8
2017-06-17T09:25:17.280Z,22.77
2017-06-17T09:26:17.281Z,22.61
2017-06-17T09:27:17.286Z,22.46
2017-06-17T09:28:16.982Z,22.54
2017-06-17T09:29:17.290Z,22.52
2017-06-17T09:30:17.286Z,22.52
2017-06-17T09:31:17.289Z,22.46
2017-06-17T09:32:17.289Z,22.46
2017-06-17T09:33:16.986Z,22.51
2017-06-17T09:34:16.992Z,22.51
2017-06-17T09:35:17.294Z,22.52
2017-06-17T09:36:17.319Z,22.52
2017-06-17T09:37:17.297Z,22.68
2017-06-17T09:38:17.297Z,22.76
2017-06-17T09:39:17.297Z,22.94
2017-06-17T09:40:17.300Z,23.02
2017-06-17T09:41:17.308Z,23.13
2017-06-17T09:42:17.002Z,23.25
2017-06-17T09:43:17.303Z,23.17
2017-06-17T09:44:17.306Z,23.17
2017-06-17T09:45:17.309Z,23.1
2017-06-17T09:46:17.307Z,23.12
2017-06-17T09:47:17.010Z,23.16
2017-06-17T09:48:17.316Z,23.16
2017-06-17T09:49:17.014Z,23.19
2017-06-17T09:50:17.315Z,23.25
2017-06-17T09:51:17.320Z,23.42
2017-06-17T09:52:17.319Z,23.4
2017-06-17T09:53:17.323Z,23.31
2017-06-17T09:54:17.328Z,23.38
2017-06-17T09:55:17.328Z,23.38
2017-06-17T09:56:17.025Z,23.19
2017-06-17T09:57:17.330Z,23.19
2017-06-17T09:58:17.330Z,23.2
2017-06-17T09:59:17.336Z,23.31
2017-06-17T10:00:17.338Z,23.38
2017-06-17T10:01:17.336Z,23.63
2017-06-17T10:02:17.342Z,23.78
2017-06-17T10:03:17.341Z,24
2017-06-17T10:04:17.345Z,24.03
2017-06-17T10:05:17.343Z,24.06
2017-06-17T10:06:17.050Z,24.08
2017-06-17T10:07:17.350Z,24.18
2017-06-17T10:08:17.351Z,24.09
2017-06-17T10:09:17.354Z,24.13
2017-06-17T10:10:17.358Z,24.08
2017-06-17T10:11:17.358Z,23.87
2017-06-17T10:12:17.366Z,23.51
2017-06-17T10:13:17.367Z,23.17
2017-06-17T10:14:17.368Z,22.95
2017-06-17T10:15:17.069Z,22.72
2017-06-17T10:16:17.374Z,22.52
2017-06-17T10:17:17.072Z,22.47
2017-06-17T10:18:17.074Z,22.52
2017-06-17T10:19:17.074Z,22.64
2017-06-17T10:20:17.077Z,22.8
2017-06-17T10:21:17.386Z,22.85
2017-06-17T10:22:17.082Z,23.07
2017-06-17T10:23:17.388Z,23.13
2017-06-17T10:24:17.091Z,23.35
2017-06-17T10:25:17.392Z,23.47
2017-06-17T10:26:17.093Z,23.57
2017-06-17T10:27:17.397Z,23.51
2017-06-17T10:28:17.398Z,23.69
2017-06-17T10:29:17.404Z,23.8
2017-06-17T10:30:17.404Z,23.91
2017-06-17T10:31:17.407Z,24.13
2017-06-17T10:32:16.806Z,24.18
2017-06-17T10:33:17.410Z,24.45
2017-06-17T10:34:17.412Z,24.61
2017-06-17T10:35:17.418Z,24.73
2017-06-17T10:36:17.419Z,24.84
2017-06-17T10:37:17.121Z,24.73
2017-06-17T10:38:17.423Z,24.5
2017-06-17T10:39:17.428Z,24.16
2017-06-17T10:40:17.435Z,24.15
2017-06-17T10:41:17.433Z,23.94
2017-06-17T10:42:17.436Z,23.79
2017-06-17T10:43:17.439Z,23.65
2017-06-17T10:44:17.139Z,23.53
2017-06-17T10:45:17.447Z,23.42
2017-06-17T10:46:17.450Z,23.25
2017-06-17T10:47:17.449Z,23.22
2017-06-17T10:48:17.451Z,23.25
2017-06-17T10:49:17.454Z,23.31
2017-06-17T10:50:17.457Z,23.19
2017-06-17T10:51:17.458Z,23.27
2017-06-17T10:52:17.459Z,23.31
2017-06-17T10:53:17.463Z,23.27
2017-06-17T10:54:17.464Z,23.25
2017-06-17T10:55:17.468Z,23.25
2017-06-17T10:56:17.467Z,23.15
2017-06-17T10:57:17.473Z,23.16
2017-06-17T10:58:17.472Z,23.09
2017-06-17T10:59:17.473Z,23.07
2017-06-17T11:00:17.475Z,22.95
2017-06-17T11:01:17.479Z,22.98
2017-06-17T11:02:17.481Z,23.1
2017-06-17T11:03:17.481Z,23.16
2017-06-17T11:04:17.480Z,23.23
2017-06-17T11:05:17.485Z,23.38
2017-06-17T11:06:17.493Z,23.43
2017-06-17T11:07:17.486Z,23.47
2017-06-17T11:08:17.489Z,23.43
2017-06-17T11:09:17.188Z,23.28
2017-06-17T11:10:17.490Z,23.22
2017-06-17T11:11:17.192Z,23.25
2017-06-17T11:12:17.498Z,22.95
2017-06-17T11:13:17.193Z,22.95
2017-06-17T11:14:17.497Z,22.91
2017-06-17T11:15:17.500Z,22.88
2017-06-17T11:16:17.501Z,22.92
2017-06-17T11:17:17.503Z,22.9
2017-06-17T11:18:17.507Z,22.77
2017-06-17T11:19:17.510Z,22.76
2017-06-17T11:20:17.507Z,22.7
2017-06-17T11:21:17.512Z,22.73
2017-06-17T11:22:17.539Z,22.77
2017-06-17T11:23:17.211Z,22.88
2017-06-17T11:24:17.210Z,22.88
2017-06-17T11:25:17.514Z,22.9
2017-06-17T11:26:17.520Z,22.86
2017-06-17T11:27:17.521Z,22.73
2017-06-17T11:28:17.521Z,22.76
2017-06-17T11:29:17.521Z,22.67
2017-06-17T11:30:17.522Z,22.62
2017-06-17T11:31:17.527Z,22.67
2017-06-17T11:32:17.523Z,22.67
2017-06-17T11:33:17.529Z,22.76
2017-06-17T11:34:17.528Z,22.79
2017-06-17T11:35:17.529Z,22.82
2017-06-17T11:36:17.530Z,22.86
2017-06-17T11:37:17.530Z,22.9
2017-06-17T11:38:17.531Z,22.95
2017-06-17T11:39:17.537Z,22.98
2017-06-17T11:40:17.533Z,22.95
2017-06-17T11:41:16.929Z,22.94
2017-06-17T11:42:17.534Z,22.98
2017-06-17T11:43:17.538Z,23.01
2017-06-17T11:44:17.537Z,23.01
2017-06-17T11:45:17.239Z,23.04
2017-06-17T11:46:17.542Z,23.12
2017-06-17T11:47:17.241Z,23.17
2017-06-17T11:48:17.541Z,23.2
2017-06-17T11:49:17.240Z,23.25
2017-06-17T11:50:17.243Z,23.22
2017-06-17T11:51:17.543Z,23.25
2017-06-17T11:52:17.547Z,23.28
2017-06-17T11:53:17.555Z,23.32
2017-06-17T11:54:17.245Z,23.25
2017-06-17T11:55:17.555Z,23.2
2017-06-17T11:56:17.552Z,23.17
2017-06-17T11:57:17.557Z,23.43
2017-06-17T11:58:17.249Z,23.5
2017-06-17T11:59:17.557Z,23.58
2017-06-17T12:00:17.252Z,23.73
2017-06-17T12:01:17.255Z,23.73
2017-06-17T12:02:17.558Z,23.84
2017-06-17T12:03:17.565Z,23.8
2017-06-17T12:04:17.563Z,23.95
2017-06-17T12:05:17.561Z,24.13
2017-06-17T12:06:17.564Z,24.18
2017-06-17T12:07:17.570Z,24.37
2017-06-17T12:08:17.569Z,24.5
2017-06-17T12:09:17.569Z,24.67
2017-06-17T12:10:17.270Z,24.73
2017-06-17T12:11:17.576Z,24.83
2017-06-17T12:12:17.583Z,25
2017-06-17T12:13:17.586Z,25.09
2017-06-17T12:14:17.582Z,25.25
2017-06-17T12:15:17.588Z,25.3
2017-06-17T12:16:17.590Z,25.4
2017-06-17T12:17:17.595Z,25.36
2017-06-17T12:18:17.596Z,25.43
2017-06-17T12:19:17.595Z,25.38
2017-06-17T12:20:16.993Z,25.33
2017-06-17T12:21:17.601Z,25.33
2017-06-17T12:22:17.606Z,25.38
2017-06-17T12:23:17.306Z,25.42
2017-06-17T12:24:17.306Z,25.52
2017-06-17T12:25:17.615Z,25.64
2017-06-17T12:26:17.317Z,25.69
2017-06-17T12:27:17.622Z,25.87
2017-06-17T12:28:17.625Z,25.91
2017-06-17T12:29:17.323Z,26.17
2017-06-17T12:30:17.633Z,26.21
2017-06-17T12:31:17.636Z,26.21
2017-06-17T12:32:17.640Z,26.21
2017-06-17T12:33:17.642Z,26.33
2017-06-17T12:34:17.649Z,26.39
2017-06-17T12:35:17.655Z,26.45
2017-06-17T12:36:17.660Z,26.58
2017-06-17T12:37:17.362Z,26.65
2017-06-17T12:38:17.662Z,26.65
2017-06-17T12:39:17.364Z,26.67
2017-06-17T12:40:17.674Z,26.66
2017-06-17T12:41:17.680Z,26.62
2017-06-17T12:42:17.681Z,26.6
2017-06-17T12:43:17.685Z,26.65
2017-06-17T12:44:17.689Z,26.62
2017-06-17T12:45:17.389Z,26.69
2017-06-17T12:46:17.394Z,26.67
2017-06-17T12:47:17.706Z,26.7
2017-06-17T12:48:17.707Z,26.67
2017-06-17T12:49:17.711Z,26.65
2017-06-17T12:50:17.411Z,26.69
2017-06-17T12:51:17.721Z,26.66
2017-06-17T12:52:17.724Z,26.72
2017-06-17T12:53:17.425Z,26.82
2017-06-17T12:54:17.434Z,26.88
2017-06-17T12:55:17.738Z,26.8
2017-06-17T12:56:17.440Z,26.66
2017-06-17T12:57:17.443Z,26.58
2017-06-17T12:58:17.448Z,26.57
2017-06-17T12:59:17.453Z,26.63
2017-06-17T13:00:17.760Z,26.7
2017-06-17T13:01:17.461Z,26.57